createdAt,value
2022-10-22T00:02:06.078Z,16.65
2022-10-22T00:07:07.955Z,16.76
2022-10-22T00:12:10.047Z,16.84
2022-10-22T00:17:11.953Z,16.95
2022-10-22T00:22:13.858Z,17.00
2022-10-22T00:27:15.727Z,17.09
2022-10-22T00:32:17.596Z,17.10
2022-10-22T00:37:19.425Z,17.03
2022-10-22T00:42:23.598Z,16.84
2022-10-22T00:47:28.287Z,16.69
2022-10-22T00:52:30.490Z,16.63
2022-10-22T00:57:34.208Z,16.50
2022-10-22T01:02:36.334Z,16.33
2022-10-22T01:07:44.499Z,16.17
2022-10-22T01:13:08.119Z,16.07
2022-10-22T01:18:13.136Z,16.05
2022-10-22T01:23:44.060Z,16.08
2022-10-22T01:28:57.472Z,16.07
2022-10-22T01:34:01.075Z,16.07
2022-10-22T01:39:04.557Z,16.07
2022-10-22T01:44:06.357Z,16.10
2022-10-22T01:49:14.059Z,16.14
2022-10-22T01:54:27.703Z,16.13
2022-10-22T02:00:17.722Z,16.11
2022-10-22T02:05:22.335Z,16.03
2022-10-22T02:10:24.982Z,16.01
2022-10-22T02:15:29.029Z,15.97
2022-10-22T02:20:35.094Z,15.93
2022-10-22T02:25:42.097Z,15.85
2022-10-22T02:30:52.056Z,15.75
2022-10-22T02:35:55.559Z,15.66
2022-10-22T02:40:57.899Z,15.62
2022-10-22T02:46:00.072Z,15.59
2022-10-22T02:51:01.915Z,15.61
2022-10-22T02:56:04.198Z,15.57
2022-10-22T03:01:06.251Z,15.53
2022-10-22T03:06:08.238Z,15.48
2022-10-22T03:11:10.079Z,15.47
2022-10-22T03:16:11.885Z,15.36
2022-10-22T03:21:48.941Z,15.18
2022-10-22T03:26:52.261Z,15.17
2022-10-22T03:31:55.013Z,15.20
2022-10-22T03:36:59.204Z,15.22
2022-10-22T03:42:01.460Z,15.20
2022-10-22T03:47:03.343Z,15.19
2022-10-22T03:52:10.016Z,15.21
2022-10-22T03:57:12.430Z,15.20
2022-10-22T04:02:14.432Z,15.22
2022-10-22T04:07:16.330Z,15.28
2022-10-22T04:12:18.144Z,15.33
2022-10-22T04:17:20.044Z,15.37
2022-10-22T04:22:21.842Z,15.37
2022-10-22T04:27:23.777Z,15.40
2022-10-22T04:32:27.008Z,15.36
2022-10-22T04:37:28.876Z,15.34
2022-10-22T04:42:31.376Z,15.32
2022-10-22T04:47:33.171Z,15.28
2022-10-22T04:52:35.068Z,15.28
2022-10-22T04:57:37.243Z,15.26
2022-10-22T05:02:39.213Z,15.23
2022-10-22T05:07:41.276Z,15.17
2022-10-22T05:12:43.276Z,15.14
2022-10-22T05:17:45.092Z,15.16
2022-10-22T05:22:46.871Z,15.14
2022-10-22T05:27:51.703Z,15.17
2022-10-22T05:32:53.513Z,15.21
2022-10-22T05:43:02.022Z,15.19
2022-10-22T05:48:04.282Z,15.21
2022-10-22T05:53:06.238Z,15.26
2022-10-22T05:58:08.335Z,15.28
2022-10-22T06:03:10.173Z,15.31
2022-10-22T06:08:18.225Z,15.31
2022-10-22T06:13:21.126Z,15.38
2022-10-22T06:18:23.018Z,15.42
2022-10-22T06:23:24.816Z,15.45
2022-10-22T06:28:27.134Z,15.47
2022-10-22T06:33:31.282Z,15.52
2022-10-22T06:38:33.089Z,15.57
2022-10-22T06:43:34.949Z,15.59
2022-10-22T06:48:38.116Z,15.61
2022-10-22T06:53:40.897Z,15.64
2022-10-22T06:58:42.882Z,15.66
2022-10-22T07:03:44.729Z,15.67
2022-10-22T07:08:46.639Z,15.66
2022-10-22T07:13:48.730Z,15.64
2022-10-22T07:18:50.678Z,15.64
2022-10-22T07:23:52.729Z,15.65
2022-10-22T07:28:54.577Z,15.63
2022-10-22T07:33:57.058Z,15.76
2022-10-22T07:39:00.224Z,16.11
2022-10-22T07:44:02.041Z,16.39
2022-10-22T07:49:03.866Z,16.49
2022-10-22T07:54:05.743Z,16.44
2022-10-22T07:59:07.947Z,16.31
2022-10-22T08:04:10.042Z,16.20
2022-10-22T08:09:11.901Z,16.17
2022-10-22T08:14:13.764Z,16.07
2022-10-22T08:19:18.962Z,16.03
2022-10-22T08:24:20.956Z,16.03
2022-10-22T08:29:23.864Z,16.08
2022-10-22T08:34:25.651Z,16.11
2022-10-22T08:39:27.581Z,16.16
2022-10-22T08:44:35.010Z,16.21
2022-10-22T08:49:42.158Z,16.28
2022-10-22T08:54:58.773Z,16.37
2022-10-22T09:00:06.058Z,16.42
2022-10-22T09:05:20.995Z,16.49
2022-10-22T09:10:29.569Z,16.61
2022-10-22T09:15:31.586Z,16.68
2022-10-22T09:20:37.574Z,16.69
2022-10-22T09:25:40.246Z,16.74
2022-10-22T09:30:43.432Z,16.85
2022-10-22T09:36:05.706Z,16.94
2022-10-22T09:41:09.156Z,16.99
2022-10-22T09:46:20.730Z,17.03
2022-10-22T09:51:25.461Z,17.09
2022-10-22T09:56:35.836Z,17.19
2022-10-22T10:01:41.018Z,17.31
2022-10-22T10:06:44.722Z,17.50
2022-10-22T10:11:53.800Z,17.56
2022-10-22T10:17:25.326Z,17.64
2022-10-22T10:22:36.199Z,17.75
2022-10-22T10:27:44.205Z,18.08
2022-10-22T10:49:34.743Z,19.31
2022-10-22T10:54:42.608Z,19.47
2022-10-22T11:00:02.867Z,19.42
2022-10-22T11:05:28.912Z,19.56
2022-10-22T11:10:40.131Z,19.66
2022-10-22T11:16:14.641Z,19.83
2022-10-22T11:21:24.786Z,19.81
2022-10-22T11:26:37.688Z,19.54
2022-10-22T11:31:41.307Z,19.16
2022-10-22T11:36:45.463Z,19.04
2022-10-22T11:41:49.134Z,18.97
2022-10-22T11:46:59.476Z,19.00
2022-10-22T11:52:25.075Z,18.95
2022-10-22T11:57:38.471Z,19.12
2022-10-22T12:02:41.199Z,19.31
2022-10-22T12:08:03.645Z,19.51
2022-10-22T12:13:22.944Z,19.56
2022-10-22T12:18:28.213Z,19.74
2022-10-22T12:23:34.262Z,19.79
2022-10-22T12:28:41.974Z,19.81
2022-10-22T12:33:43.978Z,19.70
2022-10-22T12:38:49.832Z,19.77
2022-10-22T12:43:59.559Z,19.93
2022-10-22T12:49:08.673Z,20.30
2022-10-22T12:54:21.523Z,20.72
2022-10-22T12:59:26.995Z,20.92
2022-10-22T13:04:38.694Z,21.06
2022-10-22T13:09:43.110Z,21.34
2022-10-22T13:14:46.556Z,22.30
2022-10-22T13:19:54.412Z,25.28
2022-10-22T13:24:59.063Z,25.84
2022-10-22T13:30:03.525Z,25.38
2022-10-22T13:35:05.917Z,24.00
2022-10-22T13:40:14.785Z,23.33
2022-10-22T13:45:18.031Z,23.10
2022-10-22T13:50:21.585Z,24.92
2022-10-22T13:55:25.989Z,26.40
2022-10-22T14:00:27.918Z,27.45
2022-10-22T14:05:32.695Z,26.08
2022-10-22T14:10:34.601Z,27.98
2022-10-22T14:15:37.029Z,29.96
2022-10-22T14:20:42.230Z,29.07
2022-10-22T14:25:44.066Z,27.11
2022-10-22T14:30:46.435Z,25.49
2022-10-22T14:35:49.728Z,24.02
2022-10-22T14:40:52.146Z,23.01
2022-10-22T14:45:54.885Z,22.42
2022-10-22T14:50:56.906Z,21.90
2022-10-22T14:55:59.723Z,21.52
2022-10-22T15:01:04.911Z,21.39
2022-10-22T15:06:07.483Z,21.13
2022-10-22T15:11:12.640Z,21.09
2022-10-22T15:16:16.280Z,21.02
2022-10-22T15:21:20.722Z,20.96
2022-10-22T15:26:22.609Z,20.83
2022-10-22T15:31:55.075Z,20.82
2022-10-22T15:36:58.799Z,20.80
2022-10-22T15:42:00.710Z,20.74
2022-10-22T15:47:07.320Z,20.69
2022-10-22T15:52:09.899Z,20.54
2022-10-22T15:57:11.910Z,20.47
2022-10-22T16:02:13.715Z,20.44
2022-10-22T16:07:15.557Z,20.39
2022-10-22T16:12:17.448Z,20.31
2022-10-22T16:17:19.293Z,20.17
2022-10-22T16:22:21.090Z,19.98
2022-10-22T16:27:22.933Z,19.90
2022-10-22T16:32:24.749Z,19.74
2022-10-22T16:37:26.554Z,19.33
2022-10-22T16:42:28.366Z,19.06
2022-10-22T16:47:30.324Z,18.97
2022-10-22T16:52:32.826Z,18.93
2022-10-22T16:57:36.036Z,18.79
2022-10-22T17:02:38.024Z,18.74
2022-10-22T17:07:39.980Z,18.65
2022-10-22T17:12:42.241Z,18.51
2022-10-22T17:17:48.378Z,18.33
2022-10-22T17:22:50.195Z,18.25
2022-10-22T17:27:54.128Z,18.13
2022-10-22T17:32:56.096Z,18.04
2022-10-22T17:37:57.903Z,17.91
2022-10-22T17:42:59.719Z,17.84
2022-10-22T17:48:01.642Z,17.85
2022-10-22T17:53:03.502Z,17.75
2022-10-22T17:58:05.453Z,17.70
2022-10-22T18:03:07.461Z,17.64
2022-10-22T18:08:09.246Z,17.50
2022-10-22T18:13:11.072Z,17.42
2022-10-22T18:18:12.867Z,17.35
2022-10-22T18:23:14.706Z,17.39
2022-10-22T18:28:17.919Z,17.30
2022-10-22T18:33:24.027Z,17.21
2022-10-22T18:38:25.826Z,17.13
2022-10-22T18:43:28.302Z,17.03
2022-10-22T18:48:30.111Z,17.02
2022-10-22T18:53:31.972Z,17.01
2022-10-22T18:58:45.758Z,17.03
2022-10-22T19:03:48.560Z,16.91
2022-10-22T19:08:51.477Z,16.88
2022-10-22T19:13:53.502Z,16.94
2022-10-22T19:19:04.200Z,16.86
2022-10-22T19:24:06.462Z,16.75
2022-10-22T19:29:08.411Z,16.69
2022-10-22T19:34:10.994Z,16.71
2022-10-22T19:39:16.722Z,16.74
2022-10-22T19:44:19.885Z,16.77
2022-10-22T19:49:23.016Z,16.77
2022-10-22T19:54:25.638Z,16.89
2022-10-22T19:59:29.950Z,16.99
2022-10-22T20:04:33.928Z,17.02
2022-10-22T20:09:36.050Z,17.09
2022-10-22T20:14:38.154Z,17.15
2022-10-22T20:19:39.969Z,17.17
2022-10-22T20:24:41.808Z,17.19
2022-10-22T20:29:43.605Z,17.20
2022-10-22T20:34:45.382Z,17.16
2022-10-22T20:39:49.498Z,17.14
2022-10-22T20:44:51.347Z,17.08
2022-10-22T20:49:53.267Z,17.06
2022-10-22T20:54:55.068Z,17.03
2022-10-22T20:59:57.668Z,17.02
2022-10-22T21:04:59.482Z,16.99
2022-10-22T21:10:01.289Z,16.99
2022-10-22T21:15:04.634Z,17.04
2022-10-22T21:20:08.846Z,17.02
2022-10-22T21:25:10.785Z,16.98
2022-10-22T21:30:12.910Z,17.02
2022-10-22T21:35:14.802Z,17.02
2022-10-22T21:40:16.610Z,16.98
2022-10-22T21:45:22.152Z,16.86
2022-10-22T21:50:24.288Z,16.84
2022-10-22T21:55:26.109Z,16.75
2022-10-22T22:00:27.924Z,16.69
2022-10-22T22:05:29.761Z,16.64
2022-10-22T22:10:31.683Z,16.60
2022-10-22T22:15:35.132Z,16.55
2022-10-22T22:20:37.170Z,16.63
2022-10-22T22:25:38.952Z,16.62
2022-10-22T22:30:40.875Z,16.61
2022-10-22T22:35:42.776Z,16.62
2022-10-22T22:40:44.627Z,16.63
2022-10-22T22:45:46.412Z,16.61
2022-10-22T22:50:48.197Z,16.61
2022-10-22T22:55:50.258Z,16.54
2022-10-22T23:00:52.172Z,16.51
2022-10-22T23:05:53.988Z,16.50
2022-10-22T23:11:01.827Z,16.47
2022-10-22T23:16:17.209Z,16.47
2022-10-22T23:21:21.446Z,16.47
2022-10-22T23:26:32.252Z,16.46
2022-10-22T23:31:34.391Z,16.38
2022-10-22T23:36:37.545Z,16.32
2022-10-22T23:41:39.870Z,16.24
2022-10-22T23:46:42.173Z,16.23
2022-10-22T23:51:44.065Z,16.19
2022-10-22T23:56:46.302Z,16.17
